Time;durP1;ratioP1;P1;durP2;ratioP2;P2;SDS_P1;SDS_P2;PMS_P1;PMS_P2;Temp;Humidity;BMP_temperature;BMP_pressure;BME280_temperature;BME280_humidity;BME280_pressure;Samples;Min_cycle;Max_cycle;Signal;HPM_P1;HPM_P2
2021/05/05 00:01:10;;;;;;;0.30;0.30;;;;;;;;;;5015372;28;20427;-74
2021/05/05 00:03:36;;;;;;;0.30;0.30;;;;;;;;;;5015483;28;20108;-74
2021/05/05 00:06:02;;;;;;;0.57;0.28;;;;;;;;;;5010853;28;20022;-75
2021/05/05 00:08:28;;;;;;;0.40;0.40;;;;;;;;;;5016110;28;20376;-74
2021/05/05 00:10:55;;;;;;;0.50;0.30;;;;;;;;;;5015755;28;20097;-75
2021/05/05 00:13:20;;;;;;;0.20;0.20;;;;;;;;;;5016231;28;20105;-74
2021/05/05 00:15:46;;;;;;;0.63;0.40;;;;;;;;;;5011559;28;20113;-75
2021/05/05 00:18:12;;;;;;;0.30;0.30;;;;;;;;;;4996618;28;20037;-74
2021/05/05 00:20:39;;;;;;;0.70;0.38;;;;;;;;;;4996775;28;20034;-75
2021/05/05 00:23:05;;;;;;;0.50;0.45;;;;;;;;;;4996865;28;20022;-75
2021/05/05 00:25:30;;;;;;;0.50;0.50;;;;;;;;;;5007268;28;20033;-75
2021/05/05 00:27:58;;;;;;;0.65;0.30;;;;;;;;;;5015946;28;20375;-75
2021/05/05 00:30:23;;;;;;;0.60;0.40;;;;;;;;;;5014420;28;20018;-75
2021/05/05 00:32:49;;;;;;;0.47;0.47;;;;;;;;;;5006341;28;20082;-74
2021/05/05 00:35:14;;;;;;;0.40;0.40;;;;;;;;;;5003541;28;20017;-75
2021/05/05 00:37:42;;;;;;;0.40;0.40;;;;;;;;;;5014590;28;20022;-74
2021/05/05 00:40:08;;;;;;;0.20;0.20;;;;;;;;;;5014469;28;20014;-75
2021/05/05 00:42:33;;;;;;;0.40;0.40;;;;;;;;;;4998145;28;20080;-73
2021/05/05 00:44:59;;;;;;;0.20;0.20;;;;;;;;;;5015919;28;20030;-73
2021/05/05 00:47:25;;;;;;;0.30;0.30;;;;;;;;;;5014868;28;20034;-73
2021/05/05 00:49:53;;;;;;;0.30;0.30;;;;;;;;;;5014916;28;20014;-73
2021/05/05 00:52:19;;;;;;;0.45;0.45;;;;;;;;;;4998158;28;20427;-74
2021/05/05 00:54:44;;;;;;;0.40;0.40;;;;;;;;;;4997061;28;20112;-73
2021/05/05 00:57:11;;;;;;;0.85;0.45;;;;;;;;;;5014884;28;20052;-73
2021/05/05 00:59:36;;;;;;;0.40;0.40;;;;;;;;;;5013716;28;20501;-74
2021/05/05 01:02:01;;;;;;;0.30;0.30;;;;;;;;;;5013926;28;20021;-74
2021/05/05 01:04:27;;;;;;;0.50;0.32;;;;;;;;;;5015122;28;20026;-74
2021/05/05 01:06:54;;;;;;;0.52;0.43;;;;;;;;;;5014616;28;20062;-74
2021/05/05 01:09:20;;;;;;;0.45;0.45;;;;;;;;;;5015416;28;20386;-74
2021/05/05 01:11:46;;;;;;;0.32;0.32;;;;;;;;;;4998220;28;20105;-73
2021/05/05 01:14:16;;;;;;;0.40;0.40;;;;;;;;;;5015720;28;20041;-74
2021/05/05 01:16:41;;;;;;;0.50;0.50;;;;;;;;;;5014528;28;20076;-74
2021/05/05 01:19:06;;;;;;;0.60;0.38;;;;;;;;;;5015009;28;20065;-74
2021/05/05 01:21:32;;;;;;;0.82;0.50;;;;;;;;;;5014506;28;20049;-74
2021/05/05 01:23:57;;;;;;;0.30;0.30;;;;;;;;;;5015143;28;20460;-74
2021/05/05 01:26:22;;;;;;;0.45;0.40;;;;;;;;;;5015191;28;20022;-74
2021/05/05 01:28:47;;;;;;;0.40;0.40;;;;;;;;;;5014784;28;20030;-74
2021/05/05 01:31:13;;;;;;;0.98;0.50;;;;;;;;;;5007378;28;20061;-74
2021/05/05 01:33:39;;;;;;;0.50;0.50;;;;;;;;;;5014635;28;20026;-74
2021/05/05 01:36:06;;;;;;;0.98;0.60;;;;;;;;;;5014437;28;20550;-74
2021/05/05 01:38:31;;;;;;;1.35;0.77;;;;;;;;;;5015201;28;20401;-73
2021/05/05 01:40:57;;;;;;;1.88;0.75;;;;;;;;;;5014336;28;20022;-73
2021/05/05 01:43:24;;;;;;;1.20;0.80;;;;;;;;;;5014514;28;20034;-73
2021/05/05 01:45:49;;;;;;;1.13;0.80;;;;;;;;;;5013780;28;20375;-72
2021/05/05 01:48:16;;;;;;;0.80;0.60;;;;;;;;;;5014430;28;20033;-73
2021/05/05 01:50:41;;;;;;;1.98;0.88;;;;;;;;;;5013044;28;20049;-72
2021/05/05 01:53:07;;;;;;;1.45;0.65;;;;;;;;;;5014358;28;20045;-73
2021/05/05 01:55:35;;;;;;;0.90;0.60;;;;;;;;;;5014319;28;20599;-73
2021/05/05 01:58:00;;;;;;;0.32;0.32;;;;;;;;;;5014552;28;20026;-73
2021/05/05 02:00:30;;;;;;;0.80;0.50;;;;;;;;;;5014424;28;20506;-73
2021/05/05 02:02:57;;;;;;;0.50;0.50;;;;;;;;;;5014740;28;20025;-73
2021/05/05 02:05:22;;;;;;;0.30;0.30;;;;;;;;;;4996411;28;20029;-74
2021/05/05 02:07:48;;;;;;;0.52;0.35;;;;;;;;;;5014465;28;20025;-74
2021/05/05 02:10:14;;;;;;;0.40;0.40;;;;;;;;;;5014250;28;20026;-73
2021/05/05 02:12:40;;;;;;;0.57;0.40;;;;;;;;;;5014142;28;20355;-73
2021/05/05 02:15:06;;;;;;;0.30;0.30;;;;;;;;;;4997569;28;20033;-73
2021/05/05 02:17:35;;;;;;;0.80;0.30;;;;;;;;;;4994147;28;20599;-73
2021/05/05 02:20:00;;;;;;;0.40;0.32;;;;;;;;;;5006739;28;20022;-73
2021/05/05 02:22:25;;;;;;;0.30;0.30;;;;;;;;;;5012490;28;20041;-73
2021/05/05 02:24:50;;;;;;;0.30;0.30;;;;;;;;;;5013414;28;20025;-73
2021/05/05 02:27:16;;;;;;;0.25;0.25;;;;;;;;;;5012398;28;20026;-73
2021/05/05 02:29:41;;;;;;;0.30;0.30;;;;;;;;;;5013592;28;20030;-73
2021/05/05 02:32:08;;;;;;;0.40;0.30;;;;;;;;;;5013525;28;20102;-74
2021/05/05 02:34:34;;;;;;;0.28;0.28;;;;;;;;;;5013451;28;20025;-73
2021/05/05 02:37:02;;;;;;;0.63;0.28;;;;;;;;;;5012427;28;20018;-74
2021/05/05 02:39:27;;;;;;;0.25;0.25;;;;;;;;;;5013612;28;20022;-73
2021/05/05 02:41:52;;;;;;;0.35;0.35;;;;;;;;;;5013735;28;20068;-73
2021/05/05 02:44:17;;;;;;;0.38;0.30;;;;;;;;;;4996432;28;20053;-74
2021/05/05 02:46:43;;;;;;;0.20;0.20;;;;;;;;;;5012718;28;20128;-74
2021/05/05 02:49:08;;;;;;;0.20;0.20;;;;;;;;;;5011857;28;20566;-74
2021/05/05 02:51:34;;;;;;;0.30;0.30;;;;;;;;;;5012241;28;20022;-74
2021/05/05 02:53:59;;;;;;;0.30;0.22;;;;;;;;;;5012493;28;20109;-73
2021/05/05 02:56:26;;;;;;;0.30;0.30;;;;;;;;;;5013209;28;20034;-73
2021/05/05 02:58:52;;;;;;;0.70;0.30;;;;;;;;;;5012793;28;20128;-73
2021/05/05 03:01:19;;;;;;;0.30;0.30;;;;;;;;;;5013293;28;20101;-74
2021/05/05 03:03:47;;;;;;;0.40;0.40;;;;;;;;;;5012337;28;20101;-74
2021/05/05 03:06:12;;;;;;;0.20;0.20;;;;;;;;;;5011555;28;20080;-74
2021/05/05 03:08:37;;;;;;;0.25;0.25;;;;;;;;;;5013253;28;20076;-74
2021/05/05 03:11:03;;;;;;;0.28;0.28;;;;;;;;;;5012477;28;20020;-73
2021/05/05 03:13:28;;;;;;;0.30;0.30;;;;;;;;;;5013285;28;20025;-73
2021/05/05 03:15:56;;;;;;;0.57;0.30;;;;;;;;;;5013279;28;20423;-73
2021/05/05 03:18:23;;;;;;;0.35;0.30;;;;;;;;;;5012264;28;20037;-74
2021/05/05 03:20:48;;;;;;;0.70;0.40;;;;;;;;;;4993351;28;20026;-74
2021/05/05 03:23:16;;;;;;;0.55;0.40;;;;;;;;;;4993368;28;20358;-74
2021/05/05 03:25:41;;;;;;;0.77;0.30;;;;;;;;;;4997817;28;20027;-74
2021/05/05 03:28:07;;;;;;;0.52;0.52;;;;;;;;;;5004145;28;20028;-74
2021/05/05 03:30:32;;;;;;;0.73;0.40;;;;;;;;;;5016730;28;20359;-75
2021/05/05 03:32:57;;;;;;;0.90;0.38;;;;;;;;;;5017153;28;20049;-74
2021/05/05 03:35:23;;;;;;;1.35;0.40;;;;;;;;;;5017221;28;20026;-74
2021/05/05 03:37:50;;;;;;;0.50;0.30;;;;;;;;;;5012581;28;20033;-74
2021/05/05 03:40:16;;;;;;;0.43;0.40;;;;;;;;;;4996663;28;20033;-75
2021/05/05 03:42:41;;;;;;;0.60;0.40;;;;;;;;;;4997392;28;20030;-75
2021/05/05 03:45:07;;;;;;;0.93;0.47;;;;;;;;;;4997487;28;20054;-75
2021/05/05 03:47:33;;;;;;;0.50;0.40;;;;;;;;;;5015601;28;20124;-76
2021/05/05 03:49:58;;;;;;;0.50;0.40;;;;;;;;;;5017119;28;20339;-75
2021/05/05 03:52:24;;;;;;;0.25;0.20;;;;;;;;;;5016930;28;20018;-75
2021/05/05 03:54:49;;;;;;;0.60;0.30;;;;;;;;;;4998634;28;20510;-75
2021/05/05 03:57:14;;;;;;;0.75;0.30;;;;;;;;;;5016692;28;20033;-74
2021/05/05 03:59:40;;;;;;;0.40;0.30;;;;;;;;;;5015909;28;20053;-74
2021/05/05 04:02:05;;;;;;;0.68;0.32;;;;;;;;;;5014726;28;20391;-74
2021/05/05 04:04:30;;;;;;;0.50;0.40;;;;;;;;;;5004011;28;20340;-74
2021/05/05 04:06:56;;;;;;;0.40;0.40;;;;;;;;;;5008971;28;20104;-74
2021/05/05 04:09:22;;;;;;;0.88;0.60;;;;;;;;;;5016295;28;20101;-76
2021/05/05 04:11:47;;;;;;;0.52;0.52;;;;;;;;;;5016605;28;20384;-74
2021/05/05 04:14:12;;;;;;;0.52;0.50;;;;;;;;;;5016534;28;20018;-74
2021/05/05 04:16:37;;;;;;;0.68;0.47;;;;;;;;;;5015807;28;20026;-74
2021/05/05 04:19:03;;;;;;;0.52;0.43;;;;;;;;;;5016388;28;20034;-74
2021/05/05 04:21:28;;;;;;;0.98;0.45;;;;;;;;;;5016641;28;20507;-74
2021/05/05 04:23:54;;;;;;;0.90;0.60;;;;;;;;;;5016035;28;20025;-74
2021/05/05 04:26:22;;;;;;;1.02;0.52;;;;;;;;;;5016109;28;20424;-74
2021/05/05 04:28:50;;;;;;;0.90;0.80;;;;;;;;;;5015803;28;20058;-74
2021/05/05 04:31:15;;;;;;;1.70;0.80;;;;;;;;;;5015141;28;20040;-73
2021/05/05 04:33:45;;;;;;;2.58;0.90;;;;;;;;;;5014288;28;20403;-73
2021/05/05 04:36:13;;;;;;;2.88;0.93;;;;;;;;;;5015246;28;20029;-73
2021/05/05 04:38:39;;;;;;;1.38;0.80;;;;;;;;;;5016001;28;20095;-73
2021/05/05 04:41:04;;;;;;;1.00;0.63;;;;;;;;;;5014849;28;20026;-73
2021/05/05 04:43:29;;;;;;;1.35;0.70;;;;;;;;;;5015903;28;20014;-74
2021/05/05 04:45:54;;;;;;;1.02;0.80;;;;;;;;;;5015321;28;20526;-74
2021/05/05 04:48:22;;;;;;;1.92;0.80;;;;;;;;;;4997503;28;20160;-76
2021/05/05 04:50:47;;;;;;;1.48;0.90;;;;;;;;;;5014863;28;20049;-74
2021/05/05 04:53:13;;;;;;;2.17;0.95;;;;;;;;;;5015468;28;20048;-75
2021/05/05 04:55:38;;;;;;;1.08;0.68;;;;;;;;;;5013642;28;20022;-74
2021/05/05 04:58:03;;;;;;;1.40;0.80;;;;;;;;;;5015125;28;20035;-75
2021/05/05 05:00:28;;;;;;;1.00;0.60;;;;;;;;;;5014244;28;20026;-75
2021/05/05 05:02:53;;;;;;;1.48;0.73;;;;;;;;;;5016318;28;20014;-75
2021/05/05 05:05:21;;;;;;;0.80;0.50;;;;;;;;;;4983967;28;20045;-75
2021/05/05 05:07:49;;;;;;;0.50;0.50;;;;;;;;;;4988758;28;20573;-75
2021/05/05 05:10:14;;;;;;;2.05;0.80;;;;;;;;;;5017736;28;20080;-75
2021/05/05 05:12:42;;;;;;;0.40;0.40;;;;;;;;;;5024446;28;20026;-75
2021/05/05 05:15:07;;;;;;;0.93;0.50;;;;;;;;;;5015437;28;20033;-76
2021/05/05 05:17:33;;;;;;;1.25;0.50;;;;;;;;;;5014779;28;20022;-75
2021/05/05 05:19:58;;;;;;;0.75;0.40;;;;;;;;;;5015050;28;20034;-75
2021/05/05 05:22:26;;;;;;;0.93;0.40;;;;;;;;;;5016910;28;20064;-74
2021/05/05 05:24:51;;;;;;;0.40;0.40;;;;;;;;;;5017550;28;20025;-75
2021/05/05 05:27:17;;;;;;;1.30;0.70;;;;;;;;;;5027878;28;20519;-74
2021/05/05 05:29:42;;;;;;;1.35;0.80;;;;;;;;;;5016302;28;20034;-74
2021/05/05 05:32:07;;;;;;;2.67;1.00;;;;;;;;;;5015142;28;20060;-73
2021/05/05 05:34:42;;;;;;;2.40;1.10;;;;;;;;;;4995007;28;21228;-75
2021/05/05 05:37:07;;;;;;;3.80;1.08;;;;;;;;;;5011182;28;20022;-74
2021/05/05 05:39:32;;;;;;;2.25;0.95;;;;;;;;;;5013641;28;20022;-74
2021/05/05 05:41:57;;;;;;;1.30;0.70;;;;;;;;;;5013892;28;20018;-74
2021/05/05 05:44:23;;;;;;;1.33;0.80;;;;;;;;;;5014568;28;20143;-74
2021/05/05 05:46:50;;;;;;;2.47;0.75;;;;;;;;;;5013425;28;20080;-74
2021/05/05 05:49:15;;;;;;;0.40;0.40;;;;;;;;;;5025660;28;20411;-74
2021/05/05 05:51:41;;;;;;;0.70;0.50;;;;;;;;;;5032926;28;20013;-75
2021/05/05 05:54:06;;;;;;;0.38;0.35;;;;;;;;;;5021933;28;20482;-75
2021/05/05 05:56:32;;;;;;;0.40;0.40;;;;;;;;;;5033018;28;20117;-75
2021/05/05 05:58:57;;;;;;;0.50;0.50;;;;;;;;;;5017094;28;20026;-75
2021/05/05 06:01:24;;;;;;;0.40;0.40;;;;;;;;;;5015845;28;20324;-75
2021/05/05 06:03:49;;;;;;;0.20;0.20;;;;;;;;;;5013949;28;20022;-75
2021/05/05 06:06:15;;;;;;;0.43;0.30;;;;;;;;;;5020763;28;20081;-75
2021/05/05 06:08:40;;;;;;;0.50;0.35;;;;;;;;;;5011884;28;20021;-74
2021/05/05 06:11:06;;;;;;;0.60;0.30;;;;;;;;;;5015637;28;20030;-75
2021/05/05 06:13:31;;;;;;;0.65;0.40;;;;;;;;;;5020253;28;20030;-74
2021/05/05 06:15:57;;;;;;;0.32;0.32;;;;;;;;;;5018902;28;20021;-75
2021/05/05 06:18:22;;;;;;;0.55;0.40;;;;;;;;;;5013711;28;20022;-77
2021/05/05 06:20:47;;;;;;;0.30;0.30;;;;;;;;;;5014059;28;20033;-76
2021/05/05 06:23:12;;;;;;;0.30;0.30;;;;;;;;;;5013903;28;20045;-77
2021/05/05 06:25:38;;;;;;;0.30;0.30;;;;;;;;;;4994152;28;20070;-79
2021/05/05 06:28:03;;;;;;;0.65;0.35;;;;;;;;;;4994405;28;20018;-79
2021/05/05 06:30:28;;;;;;;0.63;0.30;;;;;;;;;;5008774;28;20289;-79
2021/05/05 06:32:54;;;;;;;0.50;0.50;;;;;;;;;;5017046;28;20457;-78
2021/05/05 06:35:19;;;;;;;0.73;0.50;;;;;;;;;;5016141;28;20026;-79
2021/05/05 06:37:47;;;;;;;1.30;0.80;;;;;;;;;;5005283;28;20038;-78
2021/05/05 06:40:12;;;;;;;1.75;0.80;;;;;;;;;;4998265;28;20458;-79
2021/05/05 06:42:38;;;;;;;1.13;0.75;;;;;;;;;;5016476;28;20028;-78
2021/05/05 06:45:04;;;;;;;1.70;1.00;;;;;;;;;;5013526;28;20098;-80
2021/05/05 06:47:29;;;;;;;3.70;1.55;;;;;;;;;;5004078;28;20068;-78
2021/05/05 06:49:54;;;;;;;2.17;1.33;;;;;;;;;;5014812;28;20464;-79
2021/05/05 06:52:20;;;;;;;1.20;0.93;;;;;;;;;;5016230;28;20017;-79
2021/05/05 06:54:45;;;;;;;3.05;1.25;;;;;;;;;;5025088;28;20041;-78
2021/05/05 06:57:12;;;;;;;3.28;1.60;;;;;;;;;;5021395;28;20034;-78
2021/05/05 06:59:40;;;;;;;3.83;1.52;;;;;;;;;;5010774;28;20117;-78
2021/05/05 07:02:07;;;;;;;2.55;1.40;;;;;;;;;;5013527;28;20092;-77
2021/05/05 07:04:32;;;;;;;4.38;1.40;;;;;;;;;;5017396;28;20021;-75
2021/05/05 07:06:58;;;;;;;2.97;1.40;;;;;;;;;;5015979;28;20052;-76
2021/05/05 07:09:25;;;;;;;2.67;1.50;;;;;;;;;;5012426;28;20350;-75
2021/05/05 07:11:51;;;;;;;1.20;1.00;;;;;;;;;;5018130;28;21391;-77
2021/05/05 07:14:16;;;;;;;0.85;0.80;;;;;;;;;;5018915;28;20030;-76
2021/05/05 07:16:41;;;;;;;3.20;1.13;;;;;;;;;;5013682;28;20041;-77
2021/05/05 07:19:06;;;;;;;1.05;0.98;;;;;;;;;;5001848;28;20037;-77
2021/05/05 07:21:34;;;;;;;1.83;1.02;;;;;;;;;;5013433;28;20057;-77
2021/05/05 07:24:02;;;;;;;1.58;1.13;;;;;;;;;;5013138;28;20026;-77
2021/05/05 07:26:27;;;;;;;2.00;1.10;;;;;;;;;;5013252;28;20453;-77
2021/05/05 07:28:53;;;;;;;1.90;1.50;;;;;;;;;;5012712;28;20022;-78
2021/05/05 07:31:19;;;;;;;2.08;1.67;;;;;;;;;;5012415;28;20144;-77
2021/05/05 07:33:49;;;;;;;3.10;1.70;;;;;;;;;;5012570;28;20358;-78
2021/05/05 07:36:17;;;;;;;3.50;2.08;;;;;;;;;;5012976;28;20383;-77
2021/05/05 07:48:57;;;;;;;1.70;1.48;;;;;;;;;;5013566;28;20101;-77
2021/05/05 07:51:25;;;;;;;2.22;1.45;;;;;;;;;;5024678;28;20076;-76
2021/05/05 07:53:50;;;;;;;2.83;1.55;;;;;;;;;;5021159;28;20080;-75
2021/05/05 07:56:16;;;;;;;2.28;1.48;;;;;;;;;;5013026;28;20014;-78
2021/05/05 07:58:45;;;;;;;2.03;1.65;;;;;;;;;;4997017;28;20553;-76
2021/05/05 08:01:13;;;;;;;2.80;1.50;;;;;;;;;;5023480;28;20430;-74
2021/05/05 08:03:39;;;;;;;2.20;1.60;;;;;;;;;;5015681;28;20125;-79
2021/05/05 08:06:05;;;;;;;2.80;1.48;;;;;;;;;;4995830;28;20509;-76
2021/05/05 08:08:32;;;;;;;1.88;1.50;;;;;;;;;;4995851;28;20105;-75
2021/05/05 08:10:57;;;;;;;3.05;1.30;;;;;;;;;;5015444;28;20042;-76
2021/05/05 08:13:26;;;;;;;2.53;1.20;;;;;;;;;;5018205;28;20022;-76
2021/05/05 08:15:54;;;;;;;1.50;1.00;;;;;;;;;;5020546;28;20024;-76
2021/05/05 08:18:20;;;;;;;1.45;0.93;;;;;;;;;;5016431;28;20021;-76
2021/05/05 08:20:47;;;;;;;1.27;0.90;;;;;;;;;;5018402;28;20014;-75
2021/05/05 08:23:14;;;;;;;3.70;1.10;;;;;;;;;;5022066;28;20042;-76
2021/05/05 08:25:39;;;;;;;1.90;1.38;;;;;;;;;;5022600;28;20026;-77
2021/05/05 08:28:05;;;;;;;2.88;1.13;;;;;;;;;;5025713;28;20022;-77
2021/05/05 08:30:30;;;;;;;2.08;1.40;;;;;;;;;;5023485;28;20030;-76
2021/05/05 08:32:55;;;;;;;1.60;1.20;;;;;;;;;;5025629;28;20308;-74
2021/05/05 08:35:21;;;;;;;1.50;1.00;;;;;;;;;;5024139;28;20033;-76
2021/05/05 08:37:51;;;;;;;4.45;1.80;;;;;;;;;;5019627;28;20018;-75
2021/05/05 08:40:16;;;;;;;1.70;1.25;;;;;;;;;;5019416;28;20026;-74
2021/05/05 08:42:42;;;;;;;2.90;1.67;;;;;;;;;;5015906;28;20018;-75
2021/05/05 08:45:10;;;;;;;4.53;1.38;;;;;;;;;;5016883;28;20044;-75
2021/05/05 08:47:36;;;;;;;2.13;1.15;;;;;;;;;;5015629;28;20049;-75
2021/05/05 08:50:03;;;;;;;2.55;1.55;;;;;;;;;;5023521;28;20023;-74
2021/05/05 08:52:29;;;;;;;5.22;1.90;;;;;;;;;;5015188;28;20463;-74
2021/05/05 08:54:56;;;;;;;3.83;1.88;;;;;;;;;;4997562;28;20083;-75
2021/05/05 08:57:22;;;;;;;4.90;1.83;;;;;;;;;;5015218;28;20060;-76
2021/05/05 08:59:47;;;;;;;2.65;1.42;;;;;;;;;;5021534;28;20025;-76
2021/05/05 09:02:12;;;;;;;3.03;1.80;;;;;;;;;;4998804;28;20032;-76
2021/05/05 09:04:38;;;;;;;2.33;1.40;;;;;;;;;;5020831;28;20100;-74
2021/05/05 09:07:03;;;;;;;1.85;1.33;;;;;;;;;;5016001;28;20021;-74
2021/05/05 09:09:41;;;;;;;1.52;1.17;;;;;;;;;;5005847;28;20026;-75
2021/05/05 09:12:12;;;;;;;2.00;1.00;;;;;;;;;;5015511;28;20049;-74
2021/05/05 09:14:53;;;;;;;1.30;0.80;;;;;;;;;;5018979;28;20362;-74
2021/05/05 09:17:18;;;;;;;1.50;0.90;;;;;;;;;;5017394;28;20033;-74
2021/05/05 09:19:44;;;;;;;0.70;0.70;;;;;;;;;;5016796;28;20014;-74
2021/05/05 09:22:09;;;;;;;1.48;0.50;;;;;;;;;;5014310;28;20022;-74
2021/05/05 09:24:38;;;;;;;1.35;0.80;;;;;;;;;;5015066;28;20042;-74
2021/05/05 09:27:04;;;;;;;1.20;0.90;;;;;;;;;;5014756;28;20010;-77
2021/05/05 09:29:49;;;;;;;2.05;0.70;;;;;;;;;;5015130;28;20022;-76
2021/05/05 09:32:15;;;;;;;1.98;0.90;;;;;;;;;;5015435;28;20041;-76
2021/05/05 09:34:44;;;;;;;2.35;0.93;;;;;;;;;;4996774;28;20056;-75
2021/05/05 09:37:10;;;;;;;1.70;0.80;;;;;;;;;;5014812;28;20105;-76
2021/05/05 09:39:39;;;;;;;1.65;0.93;;;;;;;;;;5013663;28;20045;-76
2021/05/05 09:42:24;;;;;;;1.42;1.10;;;;;;;;;;5014737;28;20037;-76
2021/05/05 09:45:08;;;;;;;1.45;0.90;;;;;;;;;;4996335;28;20087;-76
2021/05/05 09:47:49;;;;;;;1.52;0.90;;;;;;;;;;4996990;28;20045;-75
2021/05/05 09:50:29;;;;;;;3.10;1.15;;;;;;;;;;5033210;28;20021;-76
2021/05/05 09:53:12;;;;;;;1.20;1.10;;;;;;;;;;5019129;28;20022;-75
2021/05/05 09:55:38;;;;;;;3.70;1.27;;;;;;;;;;5017254;28;20037;-75
2021/05/05 09:58:30;;;;;;;3.15;1.30;;;;;;;;;;5001263;28;20021;-76
2021/05/05 10:01:04;;;;;;;1.35;0.93;;;;;;;;;;4994046;28;20033;-75
2021/05/05 10:03:37;;;;;;;2.78;1.23;;;;;;;;;;5014428;28;20050;-76
2021/05/05 10:06:22;;;;;;;2.60;1.15;;;;;;;;;;5014591;28;20050;-75
2021/05/05 10:08:51;;;;;;;1.95;1.30;;;;;;;;;;5013290;28;20513;-75
2021/05/05 10:11:20;;;;;;;1.48;1.20;;;;;;;;;;5014612;28;20050;-77
2021/05/05 10:13:45;;;;;;;4.20;1.42;;;;;;;;;;5012223;28;20018;-75
2021/05/05 10:16:11;;;;;;;2.35;1.30;;;;;;;;;;5012894;28;20109;-74
2021/05/05 10:18:36;;;;;;;2.17;1.05;;;;;;;;;;5007464;28;20077;-77
2021/05/05 10:21:01;;;;;;;2.15;1.20;;;;;;;;;;5010471;28;20030;-77
2021/05/05 10:23:27;;;;;;;1.60;1.00;;;;;;;;;;5005365;28;20030;-75
2021/05/05 10:25:52;;;;;;;1.30;0.90;;;;;;;;;;5013273;28;20100;-75
2021/05/05 10:28:20;;;;;;;1.42;0.80;;;;;;;;;;5025340;28;20342;-74
2021/05/05 10:30:45;;;;;;;1.33;0.80;;;;;;;;;;5019180;28;20046;-75
2021/05/05 10:33:19;;;;;;;2.20;1.00;;;;;;;;;;4994187;28;20465;-76
2021/05/05 10:35:45;;;;;;;1.60;0.90;;;;;;;;;;5012633;28;20041;-75
2021/05/05 10:38:30;;;;;;;2.92;1.00;;;;;;;;;;5020946;28;20056;-76
2021/05/05 10:41:11;;;;;;;1.00;0.90;;;;;;;;;;5021871;28;20029;-76
2021/05/05 10:43:50;;;;;;;2.40;0.98;;;;;;;;;;5023379;28;20025;-76
2021/05/05 10:46:27;;;;;;;1.40;0.90;;;;;;;;;;5020370;28;20042;-76
2021/05/05 10:49:01;;;;;;;1.80;0.93;;;;;;;;;;5028661;28;20071;-75
2021/05/05 10:51:48;;;;;;;2.33;1.00;;;;;;;;;;5017265;28;20010;-75
2021/05/05 10:54:21;;;;;;;1.73;1.05;;;;;;;;;;5018831;28;20045;-76
2021/05/05 10:57:05;;;;;;;1.80;0.90;;;;;;;;;;5006045;28;20095;-80
2021/05/05 10:59:30;;;;;;;1.92;1.10;;;;;;;;;;4992891;28;20014;-74
2021/05/05 11:01:56;;;;;;;1.58;0.73;;;;;;;;;;5012005;28;20028;-75
2021/05/05 11:04:22;;;;;;;1.35;0.90;;;;;;;;;;5012756;28;20014;-74
2021/05/05 11:06:48;;;;;;;1.38;0.90;;;;;;;;;;5012668;28;20022;-75
2021/05/05 11:09:14;;;;;;;1.95;0.90;;;;;;;;;;5017500;28;20685;-74
2021/05/05 11:11:41;;;;;;;2.88;1.38;;;;;;;;;;5014204;28;20202;-74
2021/05/05 11:14:07;;;;;;;2.33;1.15;;;;;;;;;;5019651;28;20033;-74
2021/05/05 11:16:55;;;;;;;1.75;0.95;;;;;;;;;;5024350;28;20041;-74
2021/05/05 11:19:42;;;;;;;2.00;1.05;;;;;;;;;;5024050;28;20061;-75
2021/05/05 11:22:10;;;;;;;1.08;0.90;;;;;;;;;;5013437;28;20151;-76
2021/05/05 11:24:39;;;;;;;1.25;0.90;;;;;;;;;;4996121;28;20041;-77
2021/05/05 11:27:05;;;;;;;0.95;0.80;;;;;;;;;;5016084;28;20511;-76
2021/05/05 11:29:33;;;;;;;2.03;0.85;;;;;;;;;;5012874;28;20022;-76
2021/05/05 11:32:01;;;;;;;1.30;0.80;;;;;;;;;;5011336;28;20022;-76
2021/05/05 11:34:27;;;;;;;1.83;0.82;;;;;;;;;;5014858;28;20033;-76
2021/05/05 11:36:55;;;;;;;2.63;1.00;;;;;;;;;;5013786;28;20029;-76
2021/05/05 11:39:33;;;;;;;3.00;0.88;;;;;;;;;;5013249;28;20018;-77
2021/05/05 11:42:13;;;;;;;1.92;1.10;;;;;;;;;;5010109;28;20022;-76
2021/05/05 11:44:45;;;;;;;1.17;0.90;;;;;;;;;;5007255;28;20032;-74
2021/05/05 11:47:12;;;;;;;1.20;0.75;;;;;;;;;;5011240;28;20594;-75
2021/05/05 11:49:39;;;;;;;2.42;0.93;;;;;;;;;;5014762;28;20037;-74
2021/05/05 11:52:20;;;;;;;0.82;0.60;;;;;;;;;;5016608;28;20474;-75
2021/05/05 11:54:56;;;;;;;1.40;0.60;;;;;;;;;;5001747;28;20058;-74
2021/05/05 11:57:26;;;;;;;1.42;0.60;;;;;;;;;;5019397;28;20023;-75
2021/05/05 11:59:52;;;;;;;1.38;1.00;;;;;;;;;;4999608;28;20021;-75
2021/05/05 12:02:18;;;;;;;3.33;1.13;;;;;;;;;;5023686;28;20036;-76
2021/05/05 12:04:43;;;;;;;1.63;0.88;;;;;;;;;;5019132;28;20024;-76
2021/05/05 12:07:11;;;;;;;1.75;1.00;;;;;;;;;;5014945;28;20109;-75
2021/05/05 12:09:40;;;;;;;1.77;0.90;;;;;;;;;;5015932;28;20018;-81
2021/05/05 12:12:34;;;;;;;1.65;1.00;;;;;;;;;;5012792;28;20025;-75
2021/05/05 12:15:03;;;;;;;1.73;0.90;;;;;;;;;;5013122;28;20042;-75
2021/05/05 12:17:32;;;;;;;1.48;0.70;;;;;;;;;;5015918;28;20029;-74
2021/05/05 12:20:10;;;;;;;1.77;0.80;;;;;;;;;;5010674;28;20044;-76
2021/05/05 12:22:37;;;;;;;3.25;1.30;;;;;;;;;;5012611;28;20026;-75
2021/05/05 12:25:06;;;;;;;2.53;0.80;;;;;;;;;;5015179;28;20496;-75
2021/05/05 12:27:32;;;;;;;1.58;0.80;;;;;;;;;;5008738;28;20018;-75
2021/05/05 12:29:58;;;;;;;1.40;0.90;;;;;;;;;;5014318;28;20071;-75
2021/05/05 12:32:23;;;;;;;1.95;1.05;;;;;;;;;;5011790;28;20026;-75
2021/05/05 12:34:55;;;;;;;2.83;1.33;;;;;;;;;;5012072;28;20469;-75
2021/05/05 12:37:23;;;;;;;2.42;1.20;;;;;;;;;;5022273;28;20013;-76
2021/05/05 12:39:50;;;;;;;1.75;1.00;;;;;;;;;;5015312;28;20026;-76
2021/05/05 12:42:16;;;;;;;5.15;0.80;;;;;;;;;;5013869;28;20137;-74
2021/05/05 12:44:42;;;;;;;0.68;0.57;;;;;;;;;;5013405;28;20101;-76
2021/05/05 12:47:13;;;;;;;0.80;0.45;;;;;;;;;;5015152;28;20145;-75
2021/05/05 12:49:42;;;;;;;1.52;0.85;;;;;;;;;;5001754;28;20014;-75
2021/05/05 12:52:23;;;;;;;1.75;0.93;;;;;;;;;;5015001;28;20033;-76
2021/05/05 12:54:48;;;;;;;3.30;1.02;;;;;;;;;;4994421;28;20113;-75
2021/05/05 12:57:28;;;;;;;1.50;0.95;;;;;;;;;;5013400;28;20534;-74
2021/05/05 12:59:54;;;;;;;3.58;1.38;;;;;;;;;;5014581;28;20354;-75
2021/05/05 13:05:43;;;;;;;2.40;1.13;;;;;;;;;;5011959;28;20068;-79
2021/05/05 13:20:24;;;;;;;0.80;0.70;;;;;;;;;;5346386;22;20059;-79
2021/05/05 13:32:07;;;;;;;1.60;0.77;;;;;;;;;;4988285;28;20520;-80
2021/05/05 13:34:51;;;;;;;1.50;0.60;;;;;;;;;;5004554;28;20052;-77
2021/05/05 13:37:32;;;;;;;0.65;0.60;;;;;;;;;;4996807;28;20468;-79
2021/05/05 13:39:57;;;;;;;0.77;0.68;;;;;;;;;;5015357;28;20078;-78
2021/05/05 13:42:24;;;;;;;0.40;0.40;;;;;;;;;;5034420;28;20100;-79
2021/05/05 13:44:52;;;;;;;0.50;0.50;;;;;;;;;;5029839;28;20036;-80
2021/05/05 13:49:52;;;;;;;0.90;0.52;;;;;;;;;;5034737;28;20361;-77
2021/05/05 13:52:20;;;;;;;0.30;0.30;;;;;;;;;;5034485;28;20017;-78
2021/05/05 13:54:48;;;;;;;0.32;0.32;;;;;;;;;;5045954;28;20044;-78
2021/05/05 13:57:16;;;;;;;0.40;0.30;;;;;;;;;;5034420;28;20049;-77
2021/05/05 13:59:42;;;;;;;0.20;0.17;;;;;;;;;;5034564;28;20460;-79
2021/05/05 14:02:07;;;;;;;1.65;0.40;;;;;;;;;;5033057;28;20116;-75
2021/05/05 14:04:36;;;;;;;0.20;0.20;;;;;;;;;;5033536;28;20437;-79
2021/05/05 14:07:03;;;;;;;0.60;0.40;;;;;;;;;;5032831;28;20021;-80
2021/05/05 14:09:29;;;;;;;0.77;0.50;;;;;;;;;;5031227;28;20021;-76
2021/05/05 14:11:54;;;;;;;2.10;0.80;;;;;;;;;;5026053;28;20406;-78
2021/05/05 14:14:20;;;;;;;0.95;0.60;;;;;;;;;;5035037;28;20120;-78
2021/05/05 14:16:49;;;;;;;0.98;0.70;;;;;;;;;;5032468;28;20014;-78
2021/05/05 14:19:16;;;;;;;1.23;0.70;;;;;;;;;;5032763;28;20374;-77
2021/05/05 14:21:42;;;;;;;1.17;0.50;;;;;;;;;;5030258;28;20050;-79
2021/05/05 14:24:11;;;;;;;1.13;0.65;;;;;;;;;;5034984;28;20256;-80
2021/05/05 14:26:39;;;;;;;1.95;0.70;;;;;;;;;;5030449;28;20096;-79
2021/05/05 14:29:07;;;;;;;0.98;0.60;;;;;;;;;;5010271;28;20457;-80
2021/05/05 14:31:34;;;;;;;1.08;0.70;;;;;;;;;;5027915;28;20070;-80
2021/05/05 14:34:02;;;;;;;1.00;0.70;;;;;;;;;;5026795;28;20031;-78
2021/05/05 14:36:27;;;;;;;1.75;0.88;;;;;;;;;;5015528;28;20017;-77
2021/05/05 14:38:52;;;;;;;1.30;0.90;;;;;;;;;;5013133;28;20470;-79
2021/05/05 14:41:24;;;;;;;1.50;0.80;;;;;;;;;;5028634;28;20032;-81
2021/05/05 14:48:46;;;;;;;0.52;0.52;;;;;;;;;;5028001;28;20037;-80
2021/05/05 14:51:12;;;;;;;1.17;0.30;;;;;;;;;;5030924;28;20052;-80
2021/05/05 14:53:39;;;;;;;1.77;0.80;;;;;;;;;;5029555;28;20052;-79
2021/05/05 14:56:07;;;;;;;2.47;0.50;;;;;;;;;;5032634;28;20354;-83
2021/05/05 14:58:37;;;;;;;0.93;0.55;;;;;;;;;;5027003;28;20017;-81
2021/05/05 15:01:02;;;;;;;1.27;0.85;;;;;;;;;;5030908;28;20105;-78
2021/05/05 15:03:31;;;;;;;1.65;0.90;;;;;;;;;;5034972;28;20151;-82
2021/05/05 15:06:03;;;;;;;1.15;0.80;;;;;;;;;;5031027;28;20018;-79
2021/05/05 15:08:44;;;;;;;2.17;0.70;;;;;;;;;;5033756;28;20034;-79
2021/05/05 15:13:48;;;;;;;2.05;0.88;;;;;;;;;;5033291;28;20381;-81
2021/05/05 15:35:32;;;;;;;2.33;1.10;;;;;;;;;;5039641;28;20029;-78
2021/05/05 15:38:08;;;;;;;4.53;1.38;;;;;;;;;;5030304;28;20037;-80
2021/05/05 15:40:47;;;;;;;2.17;1.08;;;;;;;;;;5032390;28;20018;-78
2021/05/05 15:48:26;;;;;;;2.30;0.90;;;;;;;;;;5030473;28;20101;-78
2021/05/05 15:50:52;;;;;;;1.52;0.90;;;;;;;;;;5026021;28;20013;-78
2021/05/05 15:53:32;;;;;;;1.30;0.80;;;;;;;;;;5029866;28;20096;-77
2021/05/05 15:56:02;;;;;;;0.60;0.60;;;;;;;;;;5031310;28;20587;-77